sensor_id;sensor_type;location;lat;lon;timestamp;P1;durP1;ratioP1;P2;durP2;ratioP2
15567;SDS011;7885;42.596;23.044;2023-03-01T00:00:49;5.27;;;4.77;;
15567;SDS011;7885;42.596;23.044;2023-03-01T00:03:16;5.17;;;4.67;;
15567;SDS011;7885;42.596;23.044;2023-03-01T00:05:43;5.27;;;4.77;;
15567;SDS011;7885;42.596;23.044;2023-03-01T00:08:12;6.40;;;5.13;;
15567;SDS011;7885;42.596;23.044;2023-03-01T00:10:39;6.03;;;5.43;;
15567;SDS011;7885;42.596;23.044;2023-03-01T00:13:06;6.53;;;5.33;;
15567;SDS011;7885;42.596;23.044;2023-03-01T00:15:32;6.07;;;5.47;;
15567;SDS011;7885;42.596;23.044;2023-03-01T00:18:00;6.00;;;5.40;;
15567;SDS011;7885;42.596;23.044;2023-03-01T00:20:27;5.43;;;5.00;;
15567;SDS011;7885;42.596;23.044;2023-03-01T00:22:53;6.30;;;5.73;;
15567;SDS011;7885;42.596;23.044;2023-03-01T00:25:21;6.37;;;5.77;;
15567;SDS011;7885;42.596;23.044;2023-03-01T00:27:48;5.70;;;5.20;;
15567;SDS011;7885;42.596;23.044;2023-03-01T00:30:15;5.70;;;4.60;;
15567;SDS011;7885;42.596;23.044;2023-03-01T00:32:42;5.63;;;5.13;;
15567;SDS011;7885;42.596;23.044;2023-03-01T00:35:09;5.60;;;5.10;;
15567;SDS011;7885;42.596;23.044;2023-03-01T00:37:35;5.47;;;4.97;;
15567;SDS011;7885;42.596;23.044;2023-03-01T00:40:02;5.10;;;4.70;;
15567;SDS011;7885;42.596;23.044;2023-03-01T00:42:32;4.70;;;4.20;;
15567;SDS011;7885;42.596;23.044;2023-03-01T00:44:59;4.33;;;3.93;;
15567;SDS011;7885;42.596;23.044;2023-03-01T00:47:28;4.93;;;4.53;;
15567;SDS011;7885;42.596;23.044;2023-03-01T00:49:54;5.50;;;4.50;;
15567;SDS011;7885;42.596;23.044;2023-03-01T00:52:21;4.70;;;4.30;;
15567;SDS011;7885;42.596;23.044;2023-03-01T00:54:48;5.00;;;4.60;;
15567;SDS011;7885;42.596;23.044;2023-03-01T00:57:14;5.40;;;4.90;;
15567;SDS011;7885;42.596;23.044;2023-03-01T00:59:42;5.77;;;5.27;;
15567;SDS011;7885;42.596;23.044;2023-03-01T01:02:09;5.10;;;4.70;;
15567;SDS011;7885;42.596;23.044;2023-03-01T01:04:36;5.33;;;4.83;;
15567;SDS011;7885;42.596;23.044;2023-03-01T01:07:02;5.77;;;5.23;;
15567;SDS011;7885;42.596;23.044;2023-03-01T01:09:30;5.00;;;4.60;;
15567;SDS011;7885;42.596;23.044;2023-03-01T01:11:57;5.17;;;4.57;;
15567;SDS011;7885;42.596;23.044;2023-03-01T01:14:24;5.10;;;4.50;;
15567;SDS011;7885;42.596;23.044;2023-03-01T01:16:52;5.10;;;4.70;;
15567;SDS011;7885;42.596;23.044;2023-03-01T01:19:19;5.33;;;4.83;;
15567;SDS011;7885;42.596;23.044;2023-03-01T01:21:46;5.50;;;5.10;;
15567;SDS011;7885;42.596;23.044;2023-03-01T01:24:13;5.07;;;4.67;;
15567;SDS011;7885;42.596;23.044;2023-03-01T01:26:41;5.83;;;4.53;;
15567;SDS011;7885;42.596;23.044;2023-03-01T01:29:08;5.60;;;5.10;;
15567;SDS011;7885;42.596;23.044;2023-03-01T01:31:36;5.50;;;5.00;;
15567;SDS011;7885;42.596;23.044;2023-03-01T01:34:06;6.10;;;5.50;;
15567;SDS011;7885;42.596;23.044;2023-03-01T01:36:34;7.27;;;5.93;;
15567;SDS011;7885;42.596;23.044;2023-03-01T01:39:01;8.30;;;7.47;;
15567;SDS011;7885;42.596;23.044;2023-03-01T01:41:28;7.90;;;6.60;;
15567;SDS011;7885;42.596;23.044;2023-03-01T01:44:11;7.73;;;6.40;;
15567;SDS011;7885;42.596;23.044;2023-03-01T01:46:41;7.87;;;6.60;;
15567;SDS011;7885;42.596;23.044;2023-03-01T01:49:15;10.17;;;8.83;;
15567;SDS011;7885;42.596;23.044;2023-03-01T01:51:47;9.67;;;8.17;;
15567;SDS011;7885;42.596;23.044;2023-03-01T01:54:18;11.60;;;7.53;;
15567;SDS011;7885;42.596;23.044;2023-03-01T01:56:50;11.13;;;8.77;;
15567;SDS011;7885;42.596;23.044;2023-03-01T01:59:21;7.60;;;6.80;;
15567;SDS011;7885;42.596;23.044;2023-03-01T02:01:50;7.93;;;7.23;;
15567;SDS011;7885;42.596;23.044;2023-03-01T02:04:19;6.67;;;5.97;;
15567;SDS011;7885;42.596;23.044;2023-03-01T02:06:48;5.57;;;5.07;;
15567;SDS011;7885;42.596;23.044;2023-03-01T02:09:20;6.30;;;5.40;;
15567;SDS011;7885;42.596;23.044;2023-03-01T02:11:48;5.77;;;5.37;;
15567;SDS011;7885;42.596;23.044;2023-03-01T02:14:16;5.70;;;5.27;;
15567;SDS011;7885;42.596;23.044;2023-03-01T02:16:43;5.60;;;5.20;;
15567;SDS011;7885;42.596;23.044;2023-03-01T02:19:11;6.00;;;5.60;;
15567;SDS011;7885;42.596;23.044;2023-03-01T02:21:50;5.97;;;5.47;;
15567;SDS011;7885;42.596;23.044;2023-03-01T02:24:26;6.10;;;5.60;;
15567;SDS011;7885;42.596;23.044;2023-03-01T02:27:00;5.93;;;5.43;;
15567;SDS011;7885;42.596;23.044;2023-03-01T02:29:28;6.00;;;5.50;;
15567;SDS011;7885;42.596;23.044;2023-03-01T02:31:56;6.33;;;5.30;;
15567;SDS011;7885;42.596;23.044;2023-03-01T02:34:25;6.93;;;5.60;;
15567;SDS011;7885;42.596;23.044;2023-03-01T02:36:53;7.77;;;5.60;;
15567;SDS011;7885;42.596;23.044;2023-03-01T02:39:24;6.70;;;5.93;;
15567;SDS011;7885;42.596;23.044;2023-03-01T02:41:56;6.40;;;5.73;;
15567;SDS011;7885;42.596;23.044;2023-03-01T02:44:24;5.87;;;5.40;;
15567;SDS011;7885;42.596;23.044;2023-03-01T02:46:53;7.20;;;5.83;;
15567;SDS011;7885;42.596;23.044;2023-03-01T02:49:23;6.80;;;5.80;;
15567;SDS011;7885;42.596;23.044;2023-03-01T02:54:43;5.63;;;4.93;;
15567;SDS011;7885;42.596;23.044;2023-03-01T02:57:16;6.00;;;5.50;;
15567;SDS011;7885;42.596;23.044;2023-03-01T02:59:43;6.23;;;5.17;;
15567;SDS011;7885;42.596;23.044;2023-03-01T03:02:19;4.43;;;4.07;;
15567;SDS011;7885;42.596;23.044;2023-03-01T03:05:00;3.50;;;3.20;;
15567;SDS011;7885;42.596;23.044;2023-03-01T03:07:28;2.90;;;2.70;;
15567;SDS011;7885;42.596;23.044;2023-03-01T03:09:55;2.53;;;2.33;;
15567;SDS011;7885;42.596;23.044;2023-03-01T03:12:21;3.07;;;2.87;;
15567;SDS011;7885;42.596;23.044;2023-03-01T03:14:48;2.17;;;2.03;;
15567;SDS011;7885;42.596;23.044;2023-03-01T03:17:15;2.10;;;2.00;;
15567;SDS011;7885;42.596;23.044;2023-03-01T03:19:43;2.40;;;2.20;;
15567;SDS011;7885;42.596;23.044;2023-03-01T03:22:10;2.30;;;2.13;;
15567;SDS011;7885;42.596;23.044;2023-03-01T03:24:37;2.07;;;1.97;;
15567;SDS011;7885;42.596;23.044;2023-03-01T03:27:04;1.97;;;1.87;;
15567;SDS011;7885;42.596;23.044;2023-03-01T03:29:31;2.03;;;1.93;;
15567;SDS011;7885;42.596;23.044;2023-03-01T03:31:58;2.20;;;2.10;;
15567;SDS011;7885;42.596;23.044;2023-03-01T03:34:25;2.30;;;2.20;;
15567;SDS011;7885;42.596;23.044;2023-03-01T03:36:54;3.87;;;2.57;;
15567;SDS011;7885;42.596;23.044;2023-03-01T03:39:21;2.83;;;2.50;;
15567;SDS011;7885;42.596;23.044;2023-03-01T03:41:48;3.53;;;2.43;;
15567;SDS011;7885;42.596;23.044;2023-03-01T03:44:15;3.00;;;2.80;;
15567;SDS011;7885;42.596;23.044;2023-03-01T03:46:42;3.67;;;2.77;;
15567;SDS011;7885;42.596;23.044;2023-03-01T03:49:08;3.13;;;2.83;;
15567;SDS011;7885;42.596;23.044;2023-03-01T03:51:35;3.53;;;3.17;;
15567;SDS011;7885;42.596;23.044;2023-03-01T03:54:03;4.40;;;3.30;;
15567;SDS011;7885;42.596;23.044;2023-03-01T03:56:30;5.43;;;3.80;;
15567;SDS011;7885;42.596;23.044;2023-03-01T03:58:57;6.57;;;4.80;;
15567;SDS011;7885;42.596;23.044;2023-03-01T04:01:23;4.77;;;4.27;;
15567;SDS011;7885;42.596;23.044;2023-03-01T04:03:50;5.37;;;4.60;;
15567;SDS011;7885;42.596;23.044;2023-03-01T04:06:19;5.30;;;4.13;;
15567;SDS011;7885;42.596;23.044;2023-03-01T04:08:46;6.07;;;5.47;;
15567;SDS011;7885;42.596;23.044;2023-03-01T04:11:17;7.67;;;6.97;;
15567;SDS011;7885;42.596;23.044;2023-03-01T04:13:55;7.53;;;6.60;;
15567;SDS011;7885;42.596;23.044;2023-03-01T04:16:24;6.60;;;5.83;;
15567;SDS011;7885;42.596;23.044;2023-03-01T04:18:51;6.70;;;6.07;;
15567;SDS011;7885;42.596;23.044;2023-03-01T04:21:18;7.03;;;6.33;;
15567;SDS011;7885;42.596;23.044;2023-03-01T04:23:45;6.40;;;5.80;;
15567;SDS011;7885;42.596;23.044;2023-03-01T04:26:12;5.23;;;4.80;;
15567;SDS011;7885;42.596;23.044;2023-03-01T04:28:40;6.33;;;5.83;;
15567;SDS011;7885;42.596;23.044;2023-03-01T04:31:11;7.13;;;6.43;;
15567;SDS011;7885;42.596;23.044;2023-03-01T04:33:41;4.90;;;4.50;;
15567;SDS011;7885;42.596;23.044;2023-03-01T04:36:09;4.43;;;4.03;;
15567;SDS011;7885;42.596;23.044;2023-03-01T04:38:37;4.23;;;3.87;;
15567;SDS011;7885;42.596;23.044;2023-03-01T04:41:04;3.40;;;3.10;;
15567;SDS011;7885;42.596;23.044;2023-03-01T04:43:31;4.07;;;3.77;;
15567;SDS011;7885;42.596;23.044;2023-03-01T04:46:04;4.30;;;3.90;;
15567;SDS011;7885;42.596;23.044;2023-03-01T04:48:34;4.07;;;3.77;;
15567;SDS011;7885;42.596;23.044;2023-03-01T04:51:01;3.80;;;3.50;;
15567;SDS011;7885;42.596;23.044;2023-03-01T04:53:29;3.70;;;3.40;;
15567;SDS011;7885;42.596;23.044;2023-03-01T04:55:56;3.70;;;3.40;;
15567;SDS011;7885;42.596;23.044;2023-03-01T05:01:46;4.40;;;4.00;;
15567;SDS011;7885;42.596;23.044;2023-03-01T05:04:13;5.97;;;4.87;;
15567;SDS011;7885;42.596;23.044;2023-03-01T05:06:39;6.57;;;4.60;;
15567;SDS011;7885;42.596;23.044;2023-03-01T05:09:06;4.70;;;4.30;;
15567;SDS011;7885;42.596;23.044;2023-03-01T05:11:33;5.33;;;4.50;;
15567;SDS011;7885;42.596;23.044;2023-03-01T05:14:00;5.93;;;5.30;;
15567;SDS011;7885;42.596;23.044;2023-03-01T05:16:27;5.70;;;5.20;;
15567;SDS011;7885;42.596;23.044;2023-03-01T05:18:57;6.27;;;4.40;;
15567;SDS011;7885;42.596;23.044;2023-03-01T05:21:24;5.30;;;4.80;;
15567;SDS011;7885;42.596;23.044;2023-03-01T05:23:51;5.63;;;5.13;;
15567;SDS011;7885;42.596;23.044;2023-03-01T05:26:18;6.17;;;4.87;;
15567;SDS011;7885;42.596;23.044;2023-03-01T05:28:52;6.77;;;4.80;;
15567;SDS011;7885;42.596;23.044;2023-03-01T05:31:21;5.93;;;5.27;;
15567;SDS011;7885;42.596;23.044;2023-03-01T05:33:48;5.40;;;4.90;;
15567;SDS011;7885;42.596;23.044;2023-03-01T05:36:16;5.47;;;5.07;;
15567;SDS011;7885;42.596;23.044;2023-03-01T05:38:43;5.43;;;4.93;;
15567;SDS011;7885;42.596;23.044;2023-03-01T05:41:13;5.50;;;4.50;;
15567;SDS011;7885;42.596;23.044;2023-03-01T05:43:40;5.40;;;5.00;;
15567;SDS011;7885;42.596;23.044;2023-03-01T05:46:09;6.77;;;5.40;;
15567;SDS011;7885;42.596;23.044;2023-03-01T05:48:38;5.43;;;4.93;;
15567;SDS011;7885;42.596;23.044;2023-03-01T05:51:05;4.90;;;4.30;;
15567;SDS011;7885;42.596;23.044;2023-03-01T05:53:33;5.70;;;5.13;;
15567;SDS011;7885;42.596;23.044;2023-03-01T05:55:59;5.60;;;5.10;;
15567;SDS011;7885;42.596;23.044;2023-03-01T05:58:29;5.87;;;5.20;;
15567;SDS011;7885;42.596;23.044;2023-03-01T06:00:56;5.80;;;5.20;;
15567;SDS011;7885;42.596;23.044;2023-03-01T06:03:22;5.50;;;5.00;;
15567;SDS011;7885;42.596;23.044;2023-03-01T06:05:49;5.87;;;4.43;;
15567;SDS011;7885;42.596;23.044;2023-03-01T06:08:16;7.23;;;5.10;;
15567;SDS011;7885;42.596;23.044;2023-03-01T06:10:44;5.70;;;4.53;;
15567;SDS011;7885;42.596;23.044;2023-03-01T06:13:12;5.70;;;5.20;;
15567;SDS011;7885;42.596;23.044;2023-03-01T06:15:39;5.50;;;5.00;;
15567;SDS011;7885;42.596;23.044;2023-03-01T06:18:06;6.27;;;4.90;;
15567;SDS011;7885;42.596;23.044;2023-03-01T06:20:32;5.50;;;5.00;;
15567;SDS011;7885;42.596;23.044;2023-03-01T06:22:59;5.77;;;4.87;;
15567;SDS011;7885;42.596;23.044;2023-03-01T06:25:26;4.87;;;4.37;;
15567;SDS011;7885;42.596;23.044;2023-03-01T06:27:54;4.83;;;4.43;;
15567;SDS011;7885;42.596;23.044;2023-03-01T06:30:22;6.57;;;5.83;;
15567;SDS011;7885;42.596;23.044;2023-03-01T06:32:51;7.30;;;6.70;;
15567;SDS011;7885;42.596;23.044;2023-03-01T06:35:18;5.00;;;4.60;;
15567;SDS011;7885;42.596;23.044;2023-03-01T06:37:46;4.40;;;4.07;;
15567;SDS011;7885;42.596;23.044;2023-03-01T06:40:14;4.40;;;4.00;;
15567;SDS011;7885;42.596;23.044;2023-03-01T06:42:41;4.90;;;4.50;;
15567;SDS011;7885;42.596;23.044;2023-03-01T06:45:11;4.80;;;4.40;;
15567;SDS011;7885;42.596;23.044;2023-03-01T06:47:38;6.73;;;4.70;;
15567;SDS011;7885;42.596;23.044;2023-03-01T06:50:04;4.90;;;4.47;;
15567;SDS011;7885;42.596;23.044;2023-03-01T06:52:31;7.00;;;5.03;;
15567;SDS011;7885;42.596;23.044;2023-03-01T06:54:58;5.30;;;4.77;;
15567;SDS011;7885;42.596;23.044;2023-03-01T06:57:25;5.13;;;4.70;;
15567;SDS011;7885;42.596;23.044;2023-03-01T06:59:52;5.20;;;4.70;;
15567;SDS011;7885;42.596;23.044;2023-03-01T07:02:20;5.97;;;5.33;;
15567;SDS011;7885;42.596;23.044;2023-03-01T07:04:48;6.63;;;6.00;;
15567;SDS011;7885;42.596;23.044;2023-03-01T07:07:15;9.40;;;8.50;;
15567;SDS011;7885;42.596;23.044;2023-03-01T07:09:43;10.60;;;8.43;;
15567;SDS011;7885;42.596;23.044;2023-03-01T07:12:09;9.50;;;8.47;;
15567;SDS011;7885;42.596;23.044;2023-03-01T07:14:36;13.37;;;9.33;;
15567;SDS011;7885;42.596;23.044;2023-03-01T07:17:03;15.47;;;10.93;;
15567;SDS011;7885;42.596;23.044;2023-03-01T07:19:31;12.43;;;8.57;;
15567;SDS011;7885;42.596;23.044;2023-03-01T07:21:58;12.10;;;8.30;;
15567;SDS011;7885;42.596;23.044;2023-03-01T07:24:25;13.43;;;9.00;;
15567;SDS011;7885;42.596;23.044;2023-03-01T07:26:51;14.13;;;7.80;;
15567;SDS011;7885;42.596;23.044;2023-03-01T07:29:18;15.37;;;7.73;;
15567;SDS011;7885;42.596;23.044;2023-03-01T07:31:45;14.70;;;7.47;;
15567;SDS011;7885;42.596;23.044;2023-03-01T07:34:12;12.00;;;8.30;;
15567;SDS011;7885;42.596;23.044;2023-03-01T07:36:40;8.90;;;8.00;;
15567;SDS011;7885;42.596;23.044;2023-03-01T07:39:08;11.63;;;7.50;;
15567;SDS011;7885;42.596;23.044;2023-03-01T07:41:35;7.87;;;6.63;;
15567;SDS011;7885;42.596;23.044;2023-03-01T07:44:02;7.00;;;6.03;;
15567;SDS011;7885;42.596;23.044;2023-03-01T07:46:29;10.27;;;7.37;;
15567;SDS011;7885;42.596;23.044;2023-03-01T07:48:56;9.67;;;8.10;;
15567;SDS011;7885;42.596;23.044;2023-03-01T07:51:23;9.97;;;7.40;;
15567;SDS011;7885;42.596;23.044;2023-03-01T07:53:51;9.43;;;7.60;;
15567;SDS011;7885;42.596;23.044;2023-03-01T07:56:18;7.10;;;6.43;;
15567;SDS011;7885;42.596;23.044;2023-03-01T07:58:45;6.67;;;5.97;;
15567;SDS011;7885;42.596;23.044;2023-03-01T08:01:13;7.70;;;6.90;;
15567;SDS011;7885;42.596;23.044;2023-03-01T08:03:41;6.93;;;6.17;;
15567;SDS011;7885;42.596;23.044;2023-03-01T08:06:09;7.40;;;6.73;;
15567;SDS011;7885;42.596;23.044;2023-03-01T08:11:59;7.20;;;6.60;;
15567;SDS011;7885;42.596;23.044;2023-03-01T08:14:26;8.00;;;6.30;;
15567;SDS011;7885;42.596;23.044;2023-03-01T08:16:53;7.77;;;7.00;;
15567;SDS011;7885;42.596;23.044;2023-03-01T08:19:20;7.57;;;6.87;;
15567;SDS011;7885;42.596;23.044;2023-03-01T08:21:46;8.20;;;7.40;;
15567;SDS011;7885;42.596;23.044;2023-03-01T08:24:13;13.10;;;8.07;;
15567;SDS011;7885;42.596;23.044;2023-03-01T08:26:40;13.37;;;7.80;;
15567;SDS011;7885;42.596;23.044;2023-03-01T08:29:08;9.00;;;7.63;;
15567;SDS011;7885;42.596;23.044;2023-03-01T08:31:35;8.23;;;6.83;;
15567;SDS011;7885;42.596;23.044;2023-03-01T08:34:05;10.53;;;8.20;;
15567;SDS011;7885;42.596;23.044;2023-03-01T08:36:34;7.50;;;6.70;;
15567;SDS011;7885;42.596;23.044;2023-03-01T08:39:02;7.93;;;7.23;;
15567;SDS011;7885;42.596;23.044;2023-03-01T08:41:30;8.53;;;7.63;;
15567;SDS011;7885;42.596;23.044;2023-03-01T08:43:56;6.43;;;5.83;;
15567;SDS011;7885;42.596;23.044;2023-03-01T08:46:26;6.77;;;6.17;;
15567;SDS011;7885;42.596;23.044;2023-03-01T08:48:53;8.17;;;7.33;;
15567;SDS011;7885;42.596;23.044;2023-03-01T08:51:20;10.67;;;7.90;;
15567;SDS011;7885;42.596;23.044;2023-03-01T08:53:48;9.03;;;6.30;;
15567;SDS011;7885;42.596;23.044;2023-03-01T08:56:15;6.23;;;5.70;;
15567;SDS011;7885;42.596;23.044;2023-03-01T08:58:43;6.23;;;5.73;;
15567;SDS011;7885;42.596;23.044;2023-03-01T09:01:10;6.87;;;5.90;;
15567;SDS011;7885;42.596;23.044;2023-03-01T09:03:39;5.70;;;5.20;;
15567;SDS011;7885;42.596;23.044;2023-03-01T09:06:07;5.77;;;5.17;;
15567;SDS011;7885;42.596;23.044;2023-03-01T09:08:34;6.37;;;4.20;;
15567;SDS011;7885;42.596;23.044;2023-03-01T09:11:01;5.93;;;5.33;;
15567;SDS011;7885;42.596;23.044;2023-03-01T09:13:28;11.40;;;7.70;;
15567;SDS011;7885;42.596;23.044;2023-03-01T09:15:56;7.50;;;6.70;;
15567;SDS011;7885;42.596;23.044;2023-03-01T09:18:23;5.93;;;5.33;;
15567;SDS011;7885;42.596;23.044;2023-03-01T09:20:51;5.70;;;5.20;;
15567;SDS011;7885;42.596;23.044;2023-03-01T09:23:20;8.60;;;5.97;;
15567;SDS011;7885;42.596;23.044;2023-03-01T09:25:46;8.23;;;5.43;;
15567;SDS011;7885;42.596;23.044;2023-03-01T09:28:13;9.43;;;6.90;;
15567;SDS011;7885;42.596;23.044;2023-03-01T09:30:40;11.00;;;7.43;;
15567;SDS011;7885;42.596;23.044;2023-03-01T09:33:06;8.33;;;7.20;;
15567;SDS011;7885;42.596;23.044;2023-03-01T09:35:39;9.17;;;6.80;;
15567;SDS011;7885;42.596;23.044;2023-03-01T09:38:12;10.27;;;7.90;;
15567;SDS011;7885;42.596;23.044;2023-03-01T09:40:41;14.80;;;9.53;;
15567;SDS011;7885;42.596;23.044;2023-03-01T09:43:15;9.73;;;7.93;;
15567;SDS011;7885;42.596;23.044;2023-03-01T09:45:47;10.50;;;8.47;;
15567;SDS011;7885;42.596;23.044;2023-03-01T09:48:18;15.20;;;8.70;;
15567;SDS011;7885;42.596;23.044;2023-03-01T09:50:48;16.07;;;7.30;;
15567;SDS011;7885;42.596;23.044;2023-03-01T09:53:18;11.67;;;7.13;;
15567;SDS011;7885;42.596;23.044;2023-03-01T09:55:48;7.03;;;6.17;;
15567;SDS011;7885;42.596;23.044;2023-03-01T09:58:27;8.00;;;6.47;;
15567;SDS011;7885;42.596;23.044;2023-03-01T10:01:09;10.13;;;7.03;;
15567;SDS011;7885;42.596;23.044;2023-03-01T10:03:50;7.57;;;6.03;;
15567;SDS011;7885;42.596;23.044;2023-03-01T10:06:27;8.67;;;6.40;;
15567;SDS011;7885;42.596;23.044;2023-03-01T10:08:56;6.60;;;5.20;;
15567;SDS011;7885;42.596;23.044;2023-03-01T10:11:26;5.87;;;5.20;;
15567;SDS011;7885;42.596;23.044;2023-03-01T10:13:58;6.30;;;4.33;;
15567;SDS011;7885;42.596;23.044;2023-03-01T10:16:34;7.63;;;4.67;;
15567;SDS011;7885;42.596;23.044;2023-03-01T10:19:09;5.33;;;4.87;;
15567;SDS011;7885;42.596;23.044;2023-03-01T10:21:41;6.40;;;5.83;;
15567;SDS011;7885;42.596;23.044;2023-03-01T10:24:13;4.63;;;4.23;;
15567;SDS011;7885;42.596;23.044;2023-03-01T10:26:47;5.20;;;4.70;;
15567;SDS011;7885;42.596;23.044;2023-03-01T10:29:20;4.63;;;4.23;;
15567;SDS011;7885;42.596;23.044;2023-03-01T10:31:52;5.43;;;4.93;;
15567;SDS011;7885;42.596;23.044;2023-03-01T10:34:22;5.43;;;4.93;;
15567;SDS011;7885;42.596;23.044;2023-03-01T10:36:55;7.03;;;5.17;;
15567;SDS011;7885;42.596;23.044;2023-03-01T10:39:25;6.10;;;5.30;;
15567;SDS011;7885;42.596;23.044;2023-03-01T10:41:57;8.30;;;6.53;;
15567;SDS011;7885;42.596;23.044;2023-03-01T10:44:42;10.00;;;6.87;;
15567;SDS011;7885;42.596;23.044;2023-03-01T10:47:20;10.67;;;6.50;;
15567;SDS011;7885;42.596;23.044;2023-03-01T10:49:52;6.13;;;5.53;;
15567;SDS011;7885;42.596;23.044;2023-03-01T10:52:22;7.33;;;5.70;;
15567;SDS011;7885;42.596;23.044;2023-03-01T10:54:53;7.13;;;6.43;;
15567;SDS011;7885;42.596;23.044;2023-03-01T11:00:17;6.37;;;5.77;;
15567;SDS011;7885;42.596;23.044;2023-03-01T11:02:48;6.90;;;6.20;;
15567;SDS011;7885;42.596;23.044;2023-03-01T11:05:17;8.87;;;6.93;;
15567;SDS011;7885;42.596;23.044;2023-03-01T11:07:46;7.33;;;6.60;;
15567;SDS011;7885;42.596;23.044;2023-03-01T11:10:18;8.97;;;8.10;;
15567;SDS011;7885;42.596;23.044;2023-03-01T11:12:45;9.00;;;7.50;;
15567;SDS011;7885;42.596;23.044;2023-03-01T11:15:20;8.10;;;6.20;;
15567;SDS011;7885;42.596;23.044;2023-03-01T11:17:49;6.87;;;6.10;;
15567;SDS011;7885;42.596;23.044;2023-03-01T11:20:18;11.13;;;7.87;;
15567;SDS011;7885;42.596;23.044;2023-03-01T11:22:51;9.83;;;8.20;;
15567;SDS011;7885;42.596;23.044;2023-03-01T11:25:23;11.10;;;8.20;;
15567;SDS011;7885;42.596;23.044;2023-03-01T11:27:51;15.53;;;8.57;;
15567;SDS011;7885;42.596;23.044;2023-03-01T11:30:20;15.33;;;8.87;;
15567;SDS011;7885;42.596;23.044;2023-03-01T11:32:53;9.40;;;7.43;;
15567;SDS011;7885;42.596;23.044;2023-03-01T11:35:27;6.33;;;4.93;;
15567;SDS011;7885;42.596;23.044;2023-03-01T11:37:59;8.27;;;6.50;;
15567;SDS011;7885;42.596;23.044;2023-03-01T11:40:34;14.23;;;8.63;;
15567;SDS011;7885;42.596;23.044;2023-03-01T11:46:40;10.73;;;5.77;;
15567;SDS011;7885;42.596;23.044;2023-03-01T11:49:18;6.63;;;5.73;;
15567;SDS011;7885;42.596;23.044;2023-03-01T11:52:03;8.37;;;5.20;;
15567;SDS011;7885;42.596;23.044;2023-03-01T11:54:46;9.23;;;5.27;;
15567;SDS011;7885;42.596;23.044;2023-03-01T11:57:27;13.37;;;6.43;;
15567;SDS011;7885;42.596;23.044;2023-03-01T12:00:07;8.17;;;5.73;;
15567;SDS011;7885;42.596;23.044;2023-03-01T12:02:50;7.80;;;5.50;;
15567;SDS011;7885;42.596;23.044;2023-03-01T12:05:54;9.53;;;6.63;;
15567;SDS011;7885;42.596;23.044;2023-03-01T12:08:41;7.67;;;5.93;;
15567;SDS011;7885;42.596;23.044;2023-03-01T12:11:16;10.83;;;6.40;;
15567;SDS011;7885;42.596;23.044;2023-03-01T12:16:53;7.93;;;7.20;;
15567;SDS011;7885;42.596;23.044;2023-03-01T12:19:33;7.50;;;5.93;;
15567;SDS011;7885;42.596;23.044;2023-03-01T12:22:10;14.07;;;7.30;;
15567;SDS011;7885;42.596;23.044;2023-03-01T12:24:57;8.17;;;6.60;;
15567;SDS011;7885;42.596;23.044;2023-03-01T12:31:11;11.00;;;6.47;;
15567;SDS011;7885;42.596;23.044;2023-03-01T12:34:01;7.00;;;6.30;;
15567;SDS011;7885;42.596;23.044;2023-03-01T12:36:41;10.23;;;7.33;;
15567;SDS011;7885;42.596;23.044;2023-03-01T12:39:20;10.70;;;7.10;;
15567;SDS011;7885;42.596;23.044;2023-03-01T12:42:01;11.67;;;6.87;;
15567;SDS011;7885;42.596;23.044;2023-03-01T12:44:42;10.77;;;6.60;;
15567;SDS011;7885;42.596;23.044;2023-03-01T12:47:26;8.47;;;6.30;;
15567;SDS011;7885;42.596;23.044;2023-03-01T12:50:10;8.77;;;6.60;;
15567;SDS011;7885;42.596;23.044;2023-03-01T12:52:43;8.03;;;6.53;;
15567;SDS011;7885;42.596;23.044;2023-03-01T12:55:18;8.53;;;5.93;;
15567;SDS011;7885;42.596;23.044;2023-03-01T12:57:52;12.80;;;6.90;;
15567;SDS011;7885;42.596;23.044;2023-03-01T13:00:28;8.70;;;6.50;;
15567;SDS011;7885;42.596;23.044;2023-03-01T13:03:05;8.70;;;7.17;;
15567;SDS011;7885;42.596;23.044;2023-03-01T13:05:42;16.63;;;9.80;;
15567;SDS011;7885;42.596;23.044;2023-03-01T13:08:24;12.70;;;10.00;;
15567;SDS011;7885;42.596;23.044;2023-03-01T13:10:59;14.30;;;10.83;;
15567;SDS011;7885;42.596;23.044;2023-03-01T13:13:38;14.80;;;10.80;;
15567;SDS011;7885;42.596;23.044;2023-03-01T13:16:21;16.83;;;12.53;;
15567;SDS011;7885;42.596;23.044;2023-03-01T13:19:08;14.20;;;10.30;;
15567;SDS011;7885;42.596;23.044;2023-03-01T13:21:41;14.33;;;10.77;;
15567;SDS011;7885;42.596;23.044;2023-03-01T13:24:26;11.63;;;10.13;;
15567;SDS011;7885;42.596;23.044;2023-03-01T13:27:11;15.47;;;7.90;;
15567;SDS011;7885;42.596;23.044;2023-03-01T13:29:51;9.43;;;7.77;;
15567;SDS011;7885;42.596;23.044;2023-03-01T13:32:20;10.17;;;7.20;;
15567;SDS011;7885;42.596;23.044;2023-03-01T13:34:51;8.20;;;6.77;;
15567;SDS011;7885;42.596;23.044;2023-03-01T13:37:20;8.77;;;7.17;;
15567;SDS011;7885;42.596;23.044;2023-03-01T13:39:54;11.77;;;7.27;;
15567;SDS011;7885;42.596;23.044;2023-03-01T13:42:34;9.43;;;6.80;;
15567;SDS011;7885;42.596;23.044;2023-03-01T13:45:04;9.73;;;6.43;;
15567;SDS011;7885;42.596;23.044;2023-03-01T13:47:40;10.80;;;6.70;;
15567;SDS011;7885;42.596;23.044;2023-03-01T13:50:16;8.90;;;6.43;;
15567;SDS011;7885;42.596;23.044;2023-03-01T13:52:48;9.13;;;7.17;;
15567;SDS011;7885;42.596;23.044;2023-03-01T13:55:21;12.87;;;6.90;;
15567;SDS011;7885;42.596;23.044;2023-03-01T13:57:53;11.97;;;7.07;;
15567;SDS011;7885;42.596;23.044;2023-03-01T14:00:33;8.80;;;5.87;;
15567;SDS011;7885;42.596;23.044;2023-03-01T14:03:08;9.90;;;6.20;;
15567;SDS011;7885;42.596;23.044;2023-03-01T14:05:38;6.47;;;5.57;;
15567;SDS011;7885;42.596;23.044;2023-03-01T14:08:18;5.30;;;4.80;;
15567;SDS011;7885;42.596;23.044;2023-03-01T14:10:53;7.93;;;5.97;;
15567;SDS011;7885;42.596;23.044;2023-03-01T14:13:52;7.77;;;5.63;;
15567;SDS011;7885;42.596;23.044;2023-03-01T14:16:31;9.33;;;6.27;;
15567;SDS011;7885;42.596;23.044;2023-03-01T14:19:09;7.33;;;5.90;;
15567;SDS011;7885;42.596;23.044;2023-03-01T14:21:44;11.63;;;6.47;;
15567;SDS011;7885;42.596;23.044;2023-03-01T14:24:16;5.60;;;4.63;;
15567;SDS011;7885;42.596;23.044;2023-03-01T14:26:44;5.93;;;5.17;;
15567;SDS011;7885;42.596;23.044;2023-03-01T14:29:23;5.40;;;4.90;;
15567;SDS011;7885;42.596;23.044;2023-03-01T14:31:51;9.77;;;5.87;;
15567;SDS011;7885;42.596;23.044;2023-03-01T14:34:18;12.43;;;7.73;;
15567;SDS011;7885;42.596;23.044;2023-03-01T14:36:48;12.37;;;5.93;;
15567;SDS011;7885;42.596;23.044;2023-03-01T14:39:19;7.67;;;5.60;;
15567;SDS011;7885;42.596;23.044;2023-03-01T14:41:50;6.80;;;5.00;;
15567;SDS011;7885;42.596;23.044;2023-03-01T14:44:19;5.77;;;5.17;;
15567;SDS011;7885;42.596;23.044;2023-03-01T14:46:51;5.80;;;5.30;;
15567;SDS011;7885;42.596;23.044;2023-03-01T14:49:20;6.17;;;5.37;;
15567;SDS011;7885;42.596;23.044;2023-03-01T14:51:53;6.47;;;5.43;;
15567;SDS011;7885;42.596;23.044;2023-03-01T14:54:23;9.23;;;5.77;;
15567;SDS011;7885;42.596;23.044;2023-03-01T14:56:52;10.20;;;5.57;;
15567;SDS011;7885;42.596;23.044;2023-03-01T14:59:21;6.40;;;5.40;;
15567;SDS011;7885;42.596;23.044;2023-03-01T15:01:49;5.47;;;5.07;;
15567;SDS011;7885;42.596;23.044;2023-03-01T15:04:17;6.43;;;4.90;;
15567;SDS011;7885;42.596;23.044;2023-03-01T15:06:46;8.13;;;5.50;;
15567;SDS011;7885;42.596;23.044;2023-03-01T15:09:17;6.47;;;5.63;;
15567;SDS011;7885;42.596;23.044;2023-03-01T15:11:45;7.63;;;5.90;;
15567;SDS011;7885;42.596;23.044;2023-03-01T15:14:24;6.77;;;5.33;;
15567;SDS011;7885;42.596;23.044;2023-03-01T15:16:53;7.93;;;5.33;;
15567;SDS011;7885;42.596;23.044;2023-03-01T15:19:20;11.47;;;6.67;;
15567;SDS011;7885;42.596;23.044;2023-03-01T15:21:54;6.47;;;5.83;;
15567;SDS011;7885;42.596;23.044;2023-03-01T15:24:24;7.80;;;7.07;;
15567;SDS011;7885;42.596;23.044;2023-03-01T15:26:54;7.13;;;6.40;;